Time;durP1;ratioP1;P1;durP2;ratioP2;P2;SDS_P1;SDS_P2;PMS_P1;PMS_P2;Temp;Humidity;BMP_temperature;BMP_pressure;BME280_temperature;BME280_humidity;BME280_pressure;Samples;Min_cycle;Max_cycle;Signal;HPM_P1;HPM_P2
2023/04/03 00:00:49;;;;;;;;;40.00;33.00;;;;;8.76;64.34;102309.97;4983148;28;45557;-56
2023/04/03 00:03:15;;;;;;;;;38.25;28.00;;;;;8.77;64.50;102313.50;5000105;28;47067;-56
2023/04/03 00:05:41;;;;;;;;;32.00;24.75;;;;;8.72;64.60;102300.50;5000476;28;45441;-46
2023/04/03 00:08:09;;;;;;;;;33.25;25.25;;;;;8.67;64.06;102290.19;5000234;28;45320;-48
2023/04/03 00:10:35;;;;;;;;;31.25;23.50;;;;;8.78;65.00;102308.09;5000404;28;45444;-48
2023/04/03 00:13:01;;;;;;;;;23.75;19.25;;;;;8.78;64.53;102309.91;4999968;28;46206;-49
2023/04/03 00:15:26;;;;;;;;;28.50;22.75;;;;;8.74;64.44;102312.72;4999951;28;45203;-48
2023/04/03 00:17:51;;;;;;;;;35.75;28.00;;;;;8.71;64.26;102317.38;5000421;28;45222;-46
2023/04/03 00:20:17;;;;;;;;;26.50;22.75;;;;;8.69;64.48;102312.16;4998994;28;45256;-45
2023/04/03 00:22:42;;;;;;;;;30.25;24.00;;;;;8.63;64.30;102304.56;4999913;28;46138;-46
2023/04/03 00:25:08;;;;;;;;;37.75;32.50;;;;;8.62;64.36;102310.84;5000145;28;45322;-47
2023/04/03 00:27:36;;;;;;;;;43.25;27.50;;;;;8.62;64.46;102318.78;5000166;28;45473;-47
2023/04/03 00:30:02;;;;;;;;;36.00;27.00;;;;;8.63;64.57;102317.00;4982712;28;45456;-55
2023/04/03 00:32:27;;;;;;;;;32.75;26.75;;;;;8.65;65.03;102315.97;4999744;28;46332;-57
2023/04/03 00:34:52;;;;;;;;;35.75;26.75;;;;;8.68;64.27;102314.91;4999816;28;45512;-44
2023/04/03 00:37:18;;;;;;;;;31.25;25.00;;;;;8.70;64.91;102320.97;4999902;28;45349;-46
2023/04/03 00:39:43;;;;;;;;;35.75;24.75;;;;;8.69;64.55;102312.16;4999883;28;45360;-44
2023/04/03 00:42:08;;;;;;;;;35.25;25.25;;;;;8.71;64.53;102315.56;4998960;28;48143;-46
2023/04/03 00:44:34;;;;;;;;;36.75;25.25;;;;;8.71;64.39;102315.56;4998762;28;45324;-55
2023/04/03 00:47:00;;;;;;;;;33.00;26.00;;;;;8.73;65.09;102316.34;4998154;28;45438;-47
2023/04/03 00:49:27;;;;;;;;;31.00;26.00;;;;;8.72;64.45;102306.69;4999058;28;45330;-46
2023/04/03 00:51:54;;;;;;;;;38.75;30.75;;;;;8.74;64.20;102315.38;4998422;28;46360;-47
2023/04/03 00:54:19;;;;;;;;;37.00;25.25;;;;;8.59;64.13;102284.50;4998623;28;45319;-45
2023/04/03 00:56:45;;;;;;;;;38.00;34.00;;;;;8.75;64.80;102313.56;4998513;28;45502;-48
2023/04/03 00:59:22;;;;;;;;;33.00;31.25;;;;;8.65;63.65;102291.25;4998376;28;45275;-48
2023/04/03 01:01:48;;;;;;;;;33.75;29.00;;;;;8.73;64.07;102310.19;4998237;28;46030;-46
2023/04/03 01:04:36;;;;;;;;;37.75;30.00;;;;;8.73;64.62;102305.72;4998342;28;45410;-46
2023/04/03 01:07:20;;;;;;;;;34.75;27.25;;;;;8.74;64.65;102294.16;4998467;28;45386;-49
2023/04/03 01:09:48;;;;;;;;;35.75;27.50;;;;;8.74;64.10;102296.81;4998445;28;45228;-56
2023/04/03 01:12:23;;;;;;;;;34.75;25.50;;;;;8.71;63.71;102288.19;4997780;28;46396;-57
2023/04/03 01:14:52;;;;;;;;;35.00;28.00;;;;;8.73;64.51;102296.91;4998197;28;45281;-57
2023/04/03 01:17:35;;;;;;;;;36.50;27.00;;;;;8.71;64.73;102293.50;4998156;28;45330;-56
2023/04/03 01:20:26;;;;;;;;;32.75;31.00;;;;;8.68;63.70;102286.59;4998436;28;45334;-54
2023/04/03 01:22:58;;;;;;;;;29.00;22.25;;;;;8.69;64.63;102292.75;4997740;28;46411;-55
2023/04/03 01:25:24;;;;;;;;;29.00;24.75;;;;;8.66;64.41;102285.81;4997831;28;45460;-54
2023/04/03 01:27:50;;;;;;;;;27.25;23.25;;;;;8.57;64.58;102270.50;4998148;28;45378;-54
2023/04/03 01:30:18;;;;;;;;;29.50;24.25;;;;;8.67;64.21;102281.38;4998216;28;45313;-55
2023/04/03 01:32:43;;;;;;;;;29.25;24.25;;;;;8.73;63.73;102284.50;4980288;28;47428;-56
2023/04/03 01:35:10;;;;;;;;;35.50;25.75;;;;;8.71;64.35;102283.72;4997671;28;45278;-55
2023/04/03 01:37:35;;;;;;;;;31.25;23.00;;;;;8.75;63.78;102289.69;4997936;28;45308;-55
2023/04/03 01:40:01;;;;;;;;;37.75;27.00;;;;;8.72;64.49;102272.19;4998149;28;45254;-56
2023/04/03 01:42:26;;;;;;;;;28.25;24.75;;;;;8.73;64.58;102288.97;4958037;28;1148405;-57
2023/04/03 01:44:51;;;;;;;;;38.00;31.50;;;;;8.71;65.03;102291.69;4998916;28;45428;-56
2023/04/03 01:47:17;;;;;;;;;32.25;28.00;;;;;8.69;65.19;102287.44;4998942;28;45385;-52
2023/04/03 01:49:42;;;;;;;;;34.25;26.00;;;;;8.65;65.56;102283.28;4999101;28;45412;-51
2023/04/03 01:52:07;;;;;;;;;44.75;31.50;;;;;8.67;65.22;102287.53;4998732;28;46207;-55
2023/04/03 01:54:33;;;;;;;;;37.75;27.50;;;;;8.67;64.89;102290.19;4998538;28;45341;-53
2023/04/03 01:56:58;;;;;;;;;35.00;28.75;;;;;8.65;64.78;102292.09;4998496;28;45463;-54
2023/04/03 01:59:23;;;;;;;;;37.25;28.75;;;;;8.64;65.71;102287.75;4999126;28;45239;-56
2023/04/03 02:01:49;;;;;;;;;41.25;26.25;;;;;8.64;65.57;102289.53;4998433;28;45901;-55
2023/04/03 02:04:14;;;;;;;;;37.25;29.25;;;;;8.58;65.17;102289.91;4997962;28;45374;-55
2023/04/03 02:06:40;;;;;;;;;29.25;26.00;;;;;8.59;65.23;102287.16;4998507;28;45362;-52
2023/04/03 02:09:05;;;;;;;;;34.50;28.75;;;;;8.60;65.76;102286.22;4998653;28;45389;-56
2023/04/03 02:11:31;;;;;;;;;39.00;28.50;;;;;8.59;66.09;102289.81;4997410;28;46632;-49
2023/04/03 02:13:56;;;;;;;;;30.75;26.75;;;;;8.58;65.38;102288.09;4998291;28;45248;-56
2023/04/03 02:16:22;;;;;;;;;26.25;22.25;;;;;8.57;65.28;102293.53;4998298;28;45382;-54
2023/04/03 02:18:47;;;;;;;;;33.00;27.00;;;;;8.54;65.59;102289.25;4998667;28;45214;-55
2023/04/03 02:21:12;;;;;;;;;31.50;26.00;;;;;8.55;65.43;102287.44;4998231;28;45468;-44
2023/04/03 02:23:37;;;;;;;;;36.75;25.25;;;;;8.55;64.47;102295.41;4998325;28;45327;-45
2023/04/03 02:26:15;;;;;;;;;34.75;25.25;;;;;8.52;64.78;102285.84;4980508;28;45892;-44
2023/04/03 02:28:41;;;;;;;;;24.75;20.75;;;;;8.52;65.56;102299.13;4998483;28;45375;-46
2023/04/03 02:31:07;;;;;;;;;37.50;26.00;;;;;8.53;65.00;102292.00;4997972;28;46006;-45
2023/04/03 02:33:33;;;;;;;;;25.50;22.50;;;;;8.50;65.20;102287.72;4998112;28;45433;-45
2023/04/03 02:35:59;;;;;;;;;30.00;22.00;;;;;8.54;65.69;102285.75;4997995;28;45250;-47
2023/04/03 02:38:25;;;;;;;;;34.00;22.75;;;;;8.42;64.95;102274.09;4998164;28;45448;-45
2023/04/03 02:40:51;;;;;;;;;31.50;24.25;;;;;8.55;64.07;102296.25;4997702;28;46927;-44
2023/04/03 02:43:17;;;;;;;;;30.25;23.50;;;;;8.52;64.78;102288.50;4997883;28;45248;-47
2023/04/03 02:45:42;;;;;;;;;34.50;26.50;;;;;8.50;64.20;102287.72;4998115;28;45427;-50
2023/04/03 02:48:08;;;;;;;;;28.75;24.50;;;;;8.48;64.08;102289.63;4998267;28;45327;-45
2023/04/03 02:50:33;;;;;;;;;25.75;21.50;;;;;8.44;63.50;102288.13;4997737;28;45992;-44
2023/04/03 02:52:58;;;;;;;;;28.50;19.25;;;;;8.33;63.90;102264.88;4997837;28;45330;-47
2023/04/03 02:55:24;;;;;;;;;22.50;18.75;;;;;8.43;64.03;102283.78;4997701;28;45215;-46
2023/04/03 02:57:49;;;;;;;;;27.50;20.50;;;;;8.43;63.95;102289.09;4997779;28;45395;-55
2023/04/03 03:00:15;;;;;;;;;28.50;20.50;;;;;8.45;64.69;102284.53;4997733;28;45951;-45
2023/04/03 03:02:40;;;;;;;;;25.25;17.25;;;;;8.43;64.12;102279.31;4996946;28;45341;-46
2023/04/03 03:05:07;;;;;;;;;21.50;19.25;;;;;8.46;64.08;102283.56;4997568;28;45489;-55
2023/04/03 03:07:32;;;;;;;;;22.00;21.00;;;;;8.47;64.59;102282.63;4997908;28;45545;-46
2023/04/03 03:09:57;;;;;;;;;26.25;20.50;;;;;8.46;63.25;102291.50;4997307;28;46187;-46
2023/04/03 03:12:24;;;;;;;;;21.00;15.50;;;;;8.39;63.85;102280.47;4996866;28;45429;-55
2023/04/03 03:14:50;;;;;;;;;25.50;20.00;;;;;8.47;64.21;102283.50;4997660;28;45362;-45
2023/04/03 03:17:15;;;;;;;;;19.25;16.25;;;;;8.49;64.25;102288.69;4997571;28;45493;-52
2023/04/03 03:19:40;;;;;;;;;25.00;19.00;;;;;8.49;63.68;102289.53;4997589;28;45992;-55
2023/04/03 03:22:06;;;;;;;;;26.50;22.00;;;;;8.48;63.85;102287.84;4997319;28;45394;-44
2023/04/03 03:24:31;;;;;;;;;23.00;17.75;;;;;8.44;63.73;102273.06;4997630;28;45249;-52
2023/04/03 03:26:56;;;;;;;;;23.25;19.75;;;;;8.47;63.77;102283.50;4997553;28;45409;-44
2023/04/03 03:29:22;;;;;;;;;19.75;18.25;;;;;8.42;63.75;102274.09;4997082;28;46035;-55
2023/04/03 03:31:47;;;;;;;;;28.00;16.50;;;;;8.36;63.42;102266.50;4997429;28;45293;-45
2023/04/03 03:34:13;;;;;;;;;22.25;18.50;;;;;8.46;63.18;102278.25;4997271;28;45422;-45
2023/04/03 03:36:38;;;;;;;;;25.25;16.50;;;;;8.44;63.04;102282.81;4997628;28;45163;-45
2023/04/03 03:39:04;;;;;;;;;21.75;18.25;;;;;8.40;63.86;102283.97;4997077;28;45843;-51
2023/04/03 03:41:29;;;;;;;;;20.25;16.00;;;;;8.39;63.09;102283.09;4996721;28;45266;-46
2023/04/03 03:43:54;;;;;;;;;22.25;17.50;;;;;8.38;62.88;102277.88;4997490;28;45449;-45
2023/04/03 03:46:20;;;;;;;;;19.00;17.75;;;;;8.37;63.25;102281.50;4997238;28;45215;-47
2023/04/03 03:48:45;;;;;;;;;17.25;16.25;;;;;8.36;63.00;102272.66;4996919;28;46105;-46
2023/04/03 03:51:10;;;;;;;;;19.75;16.25;;;;;8.24;63.40;102261.00;4996550;28;45322;-45
2023/04/03 03:53:36;;;;;;;;;23.25;20.25;;;;;8.28;62.87;102266.97;4997053;28;45816;-47
2023/04/03 03:56:01;;;;;;;;;23.00;17.75;;;;;8.36;63.54;102274.44;4997182;28;45411;-47
2023/04/03 03:58:27;;;;;;;;;21.50;17.25;;;;;8.36;62.90;102274.44;4996634;28;46204;-48
2023/04/03 04:00:52;;;;;;;;;29.25;21.00;;;;;8.35;63.04;102276.25;4997165;28;45421;-46
2023/04/03 04:03:17;;;;;;;;;19.75;14.00;;;;;8.32;62.61;102276.44;4996784;28;45530;-45
2023/04/03 04:05:43;;;;;;;;;20.50;17.25;;;;;8.34;62.26;102282.47;4997054;28;45342;-46
2023/04/03 04:08:08;;;;;;;;;31.50;27.00;;;;;8.33;62.42;102285.25;4996730;28;45972;-49
2023/04/03 04:10:35;;;;;;;;;35.00;28.00;;;;;8.32;61.98;102283.53;4996771;28;45326;-46
2023/04/03 04:13:01;;;;;;;;;22.00;17.75;;;;;8.30;62.72;102283.66;4996881;28;45299;-45
2023/04/03 04:15:26;;;;;;;;;17.75;16.25;;;;;8.25;62.28;102267.16;4996866;28;45298;-45
2023/04/03 04:17:53;;;;;;;;;23.75;20.00;;;;;8.26;62.32;102274.19;4996499;28;45959;-46
2023/04/03 04:20:18;;;;;;;;;22.00;15.25;;;;;8.28;61.87;102272.28;4996544;28;45231;-45
2023/04/03 04:22:44;;;;;;;;;17.50;15.75;;;;;8.30;62.05;102269.50;4996698;28;45326;-48
2023/04/03 04:25:10;;;;;;;;;23.50;17.25;;;;;8.31;62.39;102274.75;4996596;28;45207;-44
2023/04/03 04:27:36;;;;;;;;;18.75;17.50;;;;;8.21;61.76;102255.88;4995922;28;46377;-46
2023/04/03 04:30:03;;;;;;;;;17.75;13.75;;;;;8.29;62.17;102271.31;4996311;28;45351;-46
2023/04/03 04:32:28;;;;;;;;;20.00;14.75;;;;;8.27;61.12;102275.88;4996698;28;45344;-46
2023/04/03 04:34:54;;;;;;;;;21.50;18.75;;;;;8.21;61.48;102277.09;4999167;28;45381;-46
2023/04/03 04:37:19;;;;;;;;;18.00;15.00;;;;;8.22;60.66;102272.66;4999682;28;47202;-56
2023/04/03 04:39:45;;;;;;;;;21.25;17.25;;;;;8.15;60.86;102277.47;4982098;28;45506;-46
2023/04/03 04:42:12;;;;;;;;;20.50;17.25;;;;;8.18;61.32;102284.41;4999636;28;45504;-47
2023/04/03 04:44:38;;;;;;;;;18.00;17.00;;;;;8.03;60.84;102264.97;5000355;28;45444;-44
2023/04/03 04:47:04;;;;;;;;;27.25;17.50;;;;;8.03;61.08;102272.91;4999475;28;46076;-46
2023/04/03 04:49:29;;;;;;;;;16.50;16.50;;;;;8.11;61.30;102285.69;4999721;28;45378;-54
2023/04/03 04:51:55;;;;;;;;;20.25;16.25;;;;;8.10;60.59;102290.16;4999753;28;45275;-44
2023/04/03 04:54:20;;;;;;;;;28.75;18.00;;;;;8.10;60.55;102279.56;4999894;28;45268;-46
2023/04/03 04:56:46;;;;;;;;;21.25;15.75;;;;;8.15;60.21;102284.56;4999465;28;46063;-46
2023/04/03 04:59:11;;;;;;;;;39.25;26.50;;;;;8.07;60.89;102268.28;4999524;28;45217;-45
2023/04/03 05:01:36;;;;;;;;;31.50;23.75;;;;;8.15;59.96;102287.22;4999572;28;45275;-46
2023/04/03 05:04:02;;;;;;;;;19.50;15.25;;;;;8.18;61.07;102290.53;4999733;28;45533;-51
2023/04/03 05:06:27;;;;;;;;;27.00;17.50;;;;;8.17;59.68;102287.97;4999143;28;45424;-56
2023/04/03 05:08:52;;;;;;;;;31.25;20.00;;;;;8.14;58.96;102285.53;4999348;28;45313;-55
2023/04/03 05:11:18;;;;;;;;;23.00;16.75;;;;;8.18;58.90;102293.19;4999497;28;45459;-50
2023/04/03 05:13:43;;;;;;;;;22.75;15.25;;;;;8.17;59.18;102291.47;4999493;28;45318;-52
2023/04/03 05:16:08;;;;;;;;;18.25;16.50;;;;;8.17;58.95;102291.47;4999322;28;46215;-55
2023/04/03 05:18:35;;;;;;;;;19.75;17.00;;;;;8.17;58.96;102291.47;4999333;28;45374;-53
2023/04/03 05:21:00;;;;;;;;;20.25;16.25;;;;;8.18;58.96;102297.66;4999254;28;45461;-55
2023/04/03 05:23:25;;;;;;;;;21.75;17.75;;;;;8.17;58.66;102298.56;4999362;28;45366;-48
2023/04/03 05:25:51;;;;;;;;;19.00;14.25;;;;;8.11;58.84;102297.16;4999093;28;46021;-47
2023/04/03 05:28:16;;;;;;;;;21.50;18.25;;;;;8.07;58.67;102289.47;4998883;28;49306;-46
2023/04/03 05:30:41;;;;;;;;;27.50;17.50;;;;;8.06;59.28;102293.94;4999330;28;45473;-45
2023/04/03 05:33:07;;;;;;;;;28.75;20.75;;;;;8.07;59.25;102294.78;4999511;28;45469;-52
2023/04/03 05:35:32;;;;;;;;;20.75;17.50;;;;;8.06;58.89;102296.59;4999024;28;45384;-46
2023/04/03 05:37:58;;;;;;;;;26.50;18.00;;;;;8.04;58.55;102295.81;4999257;28;45720;-46
2023/04/03 05:40:23;;;;;;;;;19.50;19.50;;;;;8.03;58.30;102299.41;4981342;28;45390;-47
2023/04/03 05:42:48;;;;;;;;;20.00;15.75;;;;;7.96;58.02;102292.75;4998954;28;45593;-46
2023/04/03 05:45:14;;;;;;;;;30.25;24.75;;;;;7.96;58.21;102300.72;4997106;28;45446;-45
2023/04/03 05:47:39;;;;;;;;;21.50;16.00;;;;;7.96;58.95;102301.59;4998887;28;45426;-47
2023/04/03 05:50:05;;;;;;;;;22.25;19.00;;;;;7.92;58.15;102296.53;4999039;28;45352;-55
2023/04/03 05:52:37;;;;;;;;;24.00;16.25;;;;;7.96;58.51;102298.06;4999108;28;45341;-46
2023/04/03 05:55:03;;;;;;;;;19.75;16.25;;;;;7.96;58.37;102296.28;4998754;28;45423;-45
2023/04/03 05:57:29;;;;;;;;;24.50;20.00;;;;;7.96;57.91;102308.66;4998588;28;45209;-50
2023/04/03 05:59:54;;;;;;;;;18.50;16.75;;;;;7.95;57.68;102304.31;4998694;28;45470;-47
2023/04/03 06:02:22;;;;;;;;;24.00;19.75;;;;;7.95;57.50;102304.31;4998902;28;45445;-57
2023/04/03 06:04:48;;;;;;;;;22.00;18.00;;;;;7.96;58.14;102306.00;4998504;28;47135;-57
2023/04/03 06:07:16;;;;;;;;;22.25;19.00;;;;;7.85;58.36;102290.78;4980574;28;45351;-45
2023/04/03 06:09:42;;;;;;;;;21.25;18.50;;;;;7.95;56.85;102307.81;4998553;28;45334;-48
2023/04/03 06:12:07;;;;;;;;;22.25;19.25;;;;;7.96;57.43;102313.97;4980974;28;45367;-54
2023/04/03 06:14:32;;;;;;;;;18.50;13.75;;;;;7.96;57.40;102313.97;4998065;28;45768;-56
2023/04/03 06:16:59;;;;;;;;;32.25;21.00;;;;;7.97;57.43;102311.25;4998257;28;45284;-45
2023/04/03 06:19:24;;;;;;;;;18.75;14.00;;;;;7.97;56.76;102311.25;4998516;28;45425;-46
2023/04/03 06:21:50;;;;;;;;;25.00;19.25;;;;;7.98;57.42;102306.78;4998688;28;45441;-54
2023/04/03 06:24:16;;;;;;;;;25.00;17.50;;;;;7.99;57.17;102304.03;4998174;28;45510;-49
2023/04/03 06:26:42;;;;;;;;;29.75;23.00;;;;;8.01;57.43;102309.28;4998159;28;45381;-46
2023/04/03 06:29:08;;;;;;;;;23.00;16.50;;;;;8.00;57.41;102311.03;4998235;28;45516;-45
2023/04/03 06:31:33;;;;;;;;;26.75;22.25;;;;;7.91;57.81;102295.69;4998347;28;45317;-46
2023/04/03 06:33:58;;;;;;;;;21.50;20.00;;;;;8.01;57.69;102309.28;4980523;28;46953;-56
2023/04/03 06:36:24;;;;;;;;;21.00;19.25;;;;;8.04;57.40;102316.16;4997919;28;45317;-57
2023/04/03 06:38:49;;;;;;;;;20.75;17.00;;;;;8.06;57.69;102316.94;4998187;28;45420;-55
2023/04/03 06:41:16;;;;;;;;;18.00;16.00;;;;;8.06;57.01;102312.50;4998119;28;45334;-56
2023/04/03 06:43:42;;;;;;;;;23.00;17.75;;;;;8.10;57.57;102307.84;4997769;28;45568;-54
2023/04/03 06:46:22;;;;;;;;;26.25;18.25;;;;;8.10;56.60;102311.34;4997929;28;45410;-52
2023/04/03 06:48:48;;;;;;;;;23.00;16.00;;;;;8.13;56.08;102319.13;4997882;28;45493;-54
2023/04/03 06:51:19;;;;;;;;;22.50;18.50;;;;;8.20;56.74;102322.25;4980268;28;45409;-48
2023/04/03 06:53:50;;;;;;;;;24.75;20.50;;;;;8.24;56.89;102318.47;4997729;28;46158;-46
2023/04/03 06:56:16;;;;;;;;;25.50;18.75;;;;;8.27;57.28;102325.41;4997323;28;45377;-54
2023/04/03 06:58:42;;;;;;;;;28.50;19.25;;;;;8.31;56.10;102321.63;4997500;28;45321;-47
2023/04/03 07:01:09;;;;;;;;;18.50;16.75;;;;;8.33;56.70;102320.56;4998292;28;45200;-47
2023/04/03 07:03:35;;;;;;;;;18.00;18.00;;;;;8.36;56.61;102316.88;4997254;28;46273;-49
2023/04/03 07:06:01;;;;;;;;;24.75;24.75;;;;;8.38;56.19;102320.31;4997477;28;45417;-51
2023/04/03 07:08:26;;;;;;;;;23.25;18.50;;;;;8.43;56.08;102323.56;4997140;28;45475;-48
2023/04/03 07:10:52;;;;;;;;;16.75;16.00;;;;;8.44;56.30;102314.66;4997714;28;45267;-53
2023/04/03 07:13:17;;;;;;;;;24.50;20.50;;;;;8.46;55.52;102313.59;4979588;28;47031;-50
2023/04/03 07:15:42;;;;;;;;;20.00;18.25;;;;;8.50;56.26;102316.91;4997140;28;45285;-45
2023/04/03 07:18:07;;;;;;;;;24.75;18.25;;;;;8.51;55.45;102310.66;4997594;28;45383;-46
2023/04/03 07:20:33;;;;;;;;;22.25;16.25;;;;;8.51;56.00;102321.25;4997753;28;45396;-47
2023/04/03 07:22:59;;;;;;;;;19.25;18.50;;;;;8.52;56.06;102325.63;4997284;28;46153;-49
2023/04/03 07:25:25;;;;;;;;;21.75;14.75;;;;;8.54;56.35;102322.88;4997589;28;45254;-49
2023/04/03 07:27:50;;;;;;;;;18.50;16.50;;;;;8.53;56.23;102322.03;4997658;28;45384;-50
2023/04/03 07:30:16;;;;;;;;;24.00;17.75;;;;;8.55;55.43;102317.47;4997253;28;45528;-48
2023/04/03 07:32:41;;;;;;;;;25.00;17.00;;;;;8.63;55.58;102320.50;4997060;28;46765;-46
2023/04/03 07:35:07;;;;;;;;;22.75;16.00;;;;;8.66;56.12;102320.31;4997169;28;45469;-47
2023/04/03 07:37:32;;;;;;;;;22.75;17.50;;;;;8.73;55.69;102310.19;4997127;28;45365;-52
2023/04/03 07:39:58;;;;;;;;;19.50;14.75;;;;;8.77;56.02;102321.47;4996835;28;45564;-54
2023/04/03 07:42:26;;;;;;;;;20.00;16.00;;;;;8.87;55.60;102320.78;4996661;28;47075;-46
2023/04/03 07:44:51;;;;;;;;;20.00;16.25;;;;;8.95;54.91;102328.25;4996351;28;45336;-47
2023/04/03 07:47:17;;;;;;;;;23.75;16.25;;;;;9.05;55.19;102328.50;4996924;28;45374;-50
2023/04/03 07:49:43;;;;;;;;;17.50;13.75;;;;;9.12;55.04;102317.41;4978207;28;45348;-55
2023/04/03 07:52:08;;;;;;;;;16.25;13.75;;;;;9.21;54.90;102322.13;4996611;28;46040;-47
2023/04/03 07:54:34;;;;;;;;;15.00;13.50;;;;;9.35;54.69;102323.00;4996355;28;45543;-49
2023/04/03 07:57:00;;;;;;;;;17.25;16.25;;;;;9.50;54.38;102320.22;4979203;28;45415;-53
2023/04/03 07:59:25;;;;;;;;;17.50;14.00;;;;;9.65;54.53;102331.66;4996673;28;45417;-51
2023/04/03 08:01:51;;;;;;;;;13.25;13.00;;;;;9.80;53.48;102321.78;4996389;28;47777;-48
2023/04/03 08:04:16;;;;;;;;;15.50;15.25;;;;;9.91;53.29;102332.56;4996843;28;45290;-54
2023/04/03 08:06:41;;;;;;;;;15.75;15.75;;;;;10.02;53.40;102326.50;4996508;28;45336;-55
2023/04/03 08:09:08;;;;;;;;;14.00;12.00;;;;;10.17;53.26;102335.25;4998823;28;45447;-50
2023/04/03 08:11:33;;;;;;;;;17.50;13.00;;;;;10.27;51.77;102322.19;4999892;28;45434;-55
2023/04/03 08:13:59;;;;;;;;;11.00;11.00;;;;;10.48;52.08;102334.00;4999754;28;45426;-53
2023/04/03 08:16:27;;;;;;;;;21.00;12.00;;;;;10.59;51.61;102326.13;5000002;28;45394;-51
2023/04/03 08:18:54;;;;;;;;;15.33;14.67;;;;;10.64;51.83;102326.66;5000001;28;45614;-47
2023/04/03 08:21:19;;;;;;;;;24.25;16.25;;;;;10.57;50.80;102325.38;5000051;28;47082;-49
2023/04/03 08:23:49;;;;;;;;;10.67;7.67;;;;;10.35;51.01;102311.88;4999734;28;45368;-46
2023/04/03 08:26:17;;;;;;;;;9.00;7.00;;;;;10.35;49.41;102326.03;4999974;28;45390;-48
2023/04/03 08:28:42;;;;;;;;;15.67;8.33;;;;;10.38;51.10;102315.19;5000233;28;45408;-49
2023/04/03 08:31:11;;;;;;;;;15.67;10.00;;;;;10.45;50.99;102319.13;4999545;28;47197;-50
2023/04/03 08:33:38;;;;;;;;;6.00;6.00;;;;;10.35;50.46;102326.03;4999571;28;45344;-53
2023/04/03 08:36:05;;;;;;;;;6.00;6.00;;;;;10.21;50.17;102313.66;5000000;28;45441;-48
2023/04/03 08:38:30;;;;;;;;;8.00;7.00;;;;;10.37;50.44;102313.47;4999884;28;45340;-51
2023/04/03 08:41:39;;;;;;;;;10.00;6.33;;;;;10.37;51.51;102329.44;4999525;28;46099;-46
2023/04/03 08:44:22;;;;;;;;;8.33;7.00;;;;;10.27;49.57;102330.16;4991909;28;45503;-46
2023/04/03 08:46:48;;;;;;;;;9.00;6.00;;;;;10.34;50.72;102319.00;4999573;28;45386;-53
2023/04/03 08:49:25;;;;;;;;;10.33;10.33;;;;;10.44;49.74;102311.22;4999922;28;45378;-53
2023/04/03 08:51:52;;;;;;;;;7.67;6.33;;;;;10.58;50.28;102321.78;4999434;28;46350;-52
2023/04/03 08:54:30;;;;;;;;;3.67;3.67;;;;;10.53;48.91;102323.88;4999217;28;45479;-49
2023/04/03 08:56:57;;;;;;;;;12.33;9.67;;;;;10.59;48.53;102328.78;4999375;28;45303;-47
2023/04/03 08:59:30;;;;;;;;;10.33;7.00;;;;;10.61;48.50;102320.69;4999618;28;45372;-45
2023/04/03 09:02:01;;;;;;;;;7.00;7.00;;;;;10.54;49.52;102320.28;4999300;28;46115;-47
2023/04/03 09:04:31;;;;;;;;;6.00;6.00;;;;;10.47;48.92;102325.16;4999188;28;45307;-45
2023/04/03 09:07:07;;;;;;;;;14.00;8.33;;;;;10.46;49.29;102325.28;4999400;28;45340;-46
2023/04/03 09:09:40;;;;;;;;;8.33;6.00;;;;;10.49;49.59;102325.94;4999397;28;45502;-46
2023/04/03 09:12:26;;;;;;;;;6.00;6.00;;;;;10.45;50.06;102318.28;4999061;28;46451;-48
2023/04/03 09:15:11;;;;;;;;;8.33;7.00;;;;;10.40;49.81;102328.34;4998921;28;45480;-51
2023/04/03 09:17:58;;;;;;;;;10.33;6.33;;;;;10.32;49.01;102317.41;4999172;28;45400;-46
2023/04/03 09:20:52;;;;;;;;;10.33;5.00;;;;;10.35;49.48;102319.84;4998873;28;45456;-54
2023/04/03 09:23:20;;;;;;;;;7.00;7.00;;;;;10.42;49.79;102322.00;4988074;28;46909;-51
2023/04/03 09:25:46;;;;;;;;;8.67;7.33;;;;;10.56;49.15;102315.69;4999170;28;45482;-54
2023/04/03 09:28:11;;;;;;;;;7.67;7.00;;;;;10.69;49.57;102303.22;4999187;28;45342;-52
2023/04/03 09:30:37;;;;;;;;;10.33;7.33;;;;;10.77;49.01;102318.63;4998994;28;45401;-46
2023/04/03 09:33:05;;;;;;;;;11.00;8.67;;;;;10.87;48.96;102319.69;4998808;28;46252;-46
2023/04/03 09:35:36;;;;;;;;;10.33;9.00;;;;;11.10;48.63;102323.34;4998701;28;45297;-48
2023/04/03 09:38:22;;;;;;;;;6.33;6.33;;;;;11.45;48.35;102326.06;4998909;28;45465;-48
2023/04/03 09:41:02;;;;;;;;;14.33;8.00;;;;;15.62;43.88;102308.38;4998372;28;45346;-49
2023/04/03 09:43:34;;;;;;;;;6.33;6.33;;;;;16.43;40.85;102310.66;4998715;28;46982;-50
2023/04/03 09:46:33;;;;;;;;;11.00;8.00;;;;;16.55;39.31;102282.63;4997839;28;45448;-46
2023/04/03 09:49:05;;;;;;;;;13.00;6.67;;;;;16.35;39.74;102294.44;4998851;28;45460;-46
2023/04/03 09:51:31;;;;;;;;;6.33;6.00;;;;;16.28;40.09;102301.41;4998784;28;45495;-47
2023/04/03 09:53:57;;;;;;;;;9.00;7.00;;;;;17.00;38.17;102303.38;4998393;28;46396;-54
2023/04/03 09:56:33;;;;;;;;;8.67;8.00;;;;;20.72;34.13;102292.63;4998484;28;45471;-55
2023/04/03 09:58:59;;;;;;;;;6.67;5.00;;;;;23.85;30.69;102286.19;4998662;28;45429;-46
2023/04/03 10:01:29;;;;;;;;;7.67;6.67;;;;;26.01;28.91;102282.81;4998643;28;45370;-49
2023/04/03 10:04:11;;;;;;;;;3.33;3.33;;;;;27.32;27.10;102273.47;4998650;28;45964;-48
2023/04/03 10:06:46;;;;;;;;;5.75;5.75;;;;;28.33;24.39;102272.38;4998405;28;45318;-48
2023/04/03 10:09:21;;;;;;;;;5.50;4.25;;;;;29.02;24.80;102268.34;4981132;28;45398;-46
2023/04/03 10:12:10;;;;;;;;;5.50;5.00;;;;;29.91;23.22;102262.06;4998729;28;45494;-47
2023/04/03 10:14:40;;;;;;;;;5.00;5.00;;;;;30.68;22.33;102264.59;4997892;28;46162;-45
2023/04/03 10:17:09;;;;;;;;;5.40;5.40;;;;;31.14;23.06;102270.97;4998324;28;45393;-49
2023/04/03 10:19:34;;;;;;;;;6.40;4.00;;;;;31.64;19.26;102264.69;4998289;28;45345;-46
2023/04/03 10:22:07;;;;;;;;;6.00;5.00;;;;;32.37;21.22;102254.47;4998491;28;45413;-48
2023/04/03 10:24:48;;;;;;;;;6.20;6.00;;;;;32.69;19.78;102262.84;4998245;28;46219;-51
2023/04/03 10:27:24;;;;;;;;;8.80;6.80;;;;;32.68;18.87;102245.47;4998218;28;45370;-45
2023/04/03 10:30:22;;;;;;;;;6.60;5.00;;;;;33.07;19.39;102250.03;4998102;28;45440;-47
2023/04/03 10:32:54;;;;;;;;;7.20;5.00;;;;;33.36;17.54;102243.13;4997642;28;45199;-55
2023/04/03 10:35:37;;;;;;;;;4.60;4.60;;;;;33.78;17.30;102245.94;4997889;28;47219;-48
2023/04/03 10:38:15;;;;;;;;;7.80;5.80;;;;;34.28;16.76;102234.63;4997971;28;45346;-54
2023/04/03 10:41:00;;;;;;;;;6.60;5.20;;;;;34.60;16.21;102234.50;4998139;28;45341;-48
2023/04/03 10:43:43;;;;;;;;;6.20;6.20;;;;;34.60;16.35;102229.78;4998000;28;45401;-48
2023/04/03 10:46:53;;;;;;;;;4.60;4.60;;;;;34.82;19.26;102237.84;4997711;28;46738;-48
2023/04/03 10:49:50;;;;;;;;;8.20;7.40;;;;;34.95;15.48;102220.72;4990988;28;45483;-48
2023/04/03 10:52:46;;;;;;;;;4.20;4.20;;;;;35.25;15.42;102217.13;4997949;28;45298;-51
2023/04/03 10:55:30;;;;;;;;;6.20;4.80;;;;;35.39;17.85;102225.69;4998133;28;45421;-47
2023/04/03 10:57:58;;;;;;;;;4.60;4.20;;;;;35.12;17.47;102225.19;4997777;28;46275;-47
2023/04/03 11:00:36;;;;;;;;;7.60;6.20;;;;;34.97;16.09;102204.69;4997587;28;45476;-49
2023/04/03 11:03:10;;;;;;;;;6.00;4.60;;;;;34.99;15.44;102221.03;4997621;28;45406;-48
2023/04/03 11:05:43;;;;;;;;;4.60;4.60;;;;;34.77;17.57;102214.91;4998185;28;45406;-53
2023/04/03 11:08:30;;;;;;;;;5.20;5.20;;;;;34.42;15.57;102210.91;4997375;28;46274;-47
2023/04/03 11:11:00;;;;;;;;;5.80;5.80;;;;;34.53;17.05;102209.03;4997572;28;45429;-53
2023/04/03 11:13:42;;;;;;;;;5.60;5.60;;;;;34.46;17.61;102215.59;4997546;28;45376;-51
2023/04/03 11:16:08;;;;;;;;;7.00;5.20;;;;;34.43;15.90;102207.88;4997576;28;45350;-54
2023/04/03 11:18:44;;;;;;;;;4.80;4.00;;;;;34.17;14.02;102193.13;4997506;28;45352;-55
2023/04/03 11:21:24;;;;;;;;;8.20;5.00;;;;;34.49;17.40;102205.97;4997465;28;45480;-53
2023/04/03 11:23:51;;;;;;;;;4.60;4.60;;;;;34.51;16.79;102206.53;4997587;28;45389;-52
2023/04/03 11:26:25;;;;;;;;;4.00;4.00;;;;;34.69;14.75;102199.69;4997767;28;45467;-50